createdAt,value
2022-10-03T00:00:24.867Z,0.00
2022-10-03T00:01:24.875Z,0.00
2022-10-03T00:02:24.867Z,0.00
2022-10-03T00:03:24.818Z,0.00
2022-10-03T00:04:24.811Z,0.00
2022-10-03T00:05:24.805Z,0.00
2022-10-03T00:06:24.764Z,0.00
2022-10-03T00:07:24.758Z,0.00
2022-10-03T00:08:24.738Z,0.00
2022-10-03T00:09:24.727Z,0.00
2022-10-03T00:10:24.737Z,0.00
2022-10-03T00:11:24.712Z,0.00
2022-10-03T00:12:24.695Z,0.00
2022-10-03T00:13:24.666Z,0.00
2022-10-03T00:14:24.661Z,0.00
2022-10-03T00:15:24.663Z,0.00
2022-10-03T00:16:24.667Z,0.00
2022-10-03T00:17:24.635Z,0.00
2022-10-03T00:18:24.595Z,0.00
2022-10-03T00:19:24.595Z,0.00
2022-10-03T00:20:24.594Z,0.00
2022-10-03T00:21:24.564Z,0.00
2022-10-03T00:22:24.574Z,0.00
2022-10-03T00:23:24.534Z,0.00
2022-10-03T00:24:24.536Z,0.00
2022-10-03T00:25:24.583Z,0.00
2022-10-03T00:26:24.506Z,0.00
2022-10-03T00:27:24.486Z,0.00
2022-10-03T00:28:24.612Z,0.00
2022-10-03T00:29:24.454Z,0.00
2022-10-03T00:30:24.474Z,0.00
2022-10-03T00:31:24.482Z,0.00
2022-10-03T00:32:24.422Z,0.00
2022-10-03T00:33:24.441Z,0.00
2022-10-03T00:34:24.385Z,0.00
2022-10-03T00:35:24.421Z,0.00
2022-10-03T00:36:24.373Z,0.00
2022-10-03T00:37:24.342Z,0.00
2022-10-03T00:38:24.342Z,0.00
2022-10-03T00:39:24.351Z,0.00
2022-10-03T00:40:24.341Z,0.00
2022-10-03T00:41:24.311Z,0.00
2022-10-03T00:42:24.320Z,0.00
2022-10-03T00:43:24.331Z,0.00
2022-10-03T00:44:24.270Z,0.00
2022-10-03T00:45:24.270Z,0.00
2022-10-03T00:46:24.277Z,0.00
2022-10-03T00:47:24.265Z,0.00
2022-10-03T00:48:24.220Z,0.00
2022-10-03T00:49:24.210Z,0.00
2022-10-03T00:50:24.190Z,0.00
2022-10-03T00:51:24.191Z,0.00
2022-10-03T00:52:24.149Z,0.00
2022-10-03T00:53:24.173Z,0.00
2022-10-03T00:54:24.128Z,0.00
2022-10-03T00:55:24.128Z,0.00
2022-10-03T00:56:24.129Z,0.00
2022-10-03T00:57:24.089Z,0.00
2022-10-03T00:58:24.096Z,0.00
2022-10-03T00:59:24.065Z,0.00
2022-10-03T01:00:24.055Z,0.00
2022-10-03T01:01:24.086Z,0.00
2022-10-03T01:02:24.065Z,0.00
2022-10-03T01:03:24.020Z,0.00
2022-10-03T01:04:23.997Z,0.00
2022-10-03T01:05:23.997Z,0.00
2022-10-03T01:06:23.965Z,0.00
2022-10-03T01:07:23.957Z,0.00
2022-10-03T01:08:23.946Z,0.00
2022-10-03T01:09:23.941Z,0.00
2022-10-03T01:10:23.926Z,0.00
2022-10-03T01:11:23.955Z,0.00
2022-10-03T01:12:23.932Z,0.00
2022-10-03T01:13:23.875Z,0.00
2022-10-03T01:14:23.865Z,0.00
2022-10-03T01:15:23.874Z,0.00
2022-10-03T01:16:23.900Z,0.00
2022-10-03T01:17:23.826Z,0.00
2022-10-03T01:18:23.813Z,0.00
2022-10-03T01:19:23.817Z,0.00
2022-10-03T01:20:23.794Z,0.00
2022-10-03T01:21:23.805Z,0.00
2022-10-03T01:22:23.790Z,0.00
2022-10-03T01:23:23.746Z,0.00
2022-10-03T01:24:23.762Z,0.00
2022-10-03T01:25:23.743Z,0.00
2022-10-03T01:26:23.712Z,0.00
2022-10-03T01:27:23.702Z,0.00
2022-10-03T01:28:23.752Z,0.00
2022-10-03T01:29:23.676Z,0.00
2022-10-03T01:30:23.671Z,0.00
2022-10-03T01:31:23.713Z,0.00
2022-10-03T01:32:23.631Z,0.00
2022-10-03T01:33:23.621Z,0.00
2022-10-03T01:34:23.600Z,0.00
2022-10-03T01:35:23.615Z,0.00
2022-10-03T01:36:23.601Z,0.00
2022-10-03T01:37:23.595Z,0.00
2022-10-03T01:38:23.572Z,0.00
2022-10-03T01:39:23.559Z,0.00
2022-10-03T01:40:23.562Z,0.00
2022-10-03T01:41:23.530Z,0.00
2022-10-03T01:42:23.499Z,0.00
2022-10-03T01:43:23.490Z,0.00
2022-10-03T01:44:23.482Z,0.00
2022-10-03T01:45:23.502Z,0.00
2022-10-03T01:46:23.509Z,0.00
2022-10-03T01:47:23.439Z,0.00
2022-10-03T01:48:23.420Z,0.00
2022-10-03T01:49:23.420Z,0.00
2022-10-03T01:50:23.408Z,0.00
2022-10-03T01:51:23.407Z,0.00
2022-10-03T01:52:23.367Z,0.00
2022-10-03T01:53:23.366Z,0.00
2022-10-03T01:54:23.348Z,0.00
2022-10-03T01:55:23.370Z,0.00
2022-10-03T01:56:23.323Z,0.00
2022-10-03T01:57:23.316Z,0.00
2022-10-03T01:58:23.327Z,0.00
2022-10-03T01:59:23.286Z,0.00
2022-10-03T02:00:23.278Z,0.00
2022-10-03T02:01:23.320Z,0.00
2022-10-03T02:02:23.263Z,0.00
2022-10-03T02:03:23.246Z,0.00
2022-10-03T02:04:23.220Z,0.00
2022-10-03T02:05:23.247Z,0.00
2022-10-03T02:06:23.187Z,0.00
2022-10-03T02:07:23.174Z,0.00
2022-10-03T02:08:23.164Z,0.00
2022-10-03T02:09:23.194Z,0.00
2022-10-03T02:10:23.182Z,0.00
2022-10-03T02:11:23.133Z,0.00
2022-10-03T02:12:23.115Z,0.00
2022-10-03T02:13:23.103Z,0.00
2022-10-03T02:14:23.093Z,0.00
2022-10-03T02:15:23.092Z,0.00
2022-10-03T02:16:23.145Z,0.00
2022-10-03T02:17:23.083Z,0.00
2022-10-03T02:18:23.032Z,0.00
2022-10-03T02:19:23.023Z,0.00
2022-10-03T02:20:23.023Z,0.00
2022-10-03T02:21:23.019Z,0.00
2022-10-03T02:22:22.981Z,0.00
2022-10-03T02:23:22.969Z,0.00
2022-10-03T02:24:22.970Z,0.00
2022-10-03T02:25:22.951Z,0.00
2022-10-03T02:26:22.929Z,0.00
2022-10-03T02:27:22.920Z,0.00
2022-10-03T02:28:22.935Z,0.00
2022-10-03T02:29:22.890Z,0.00
2022-10-03T02:30:22.901Z,0.00
2022-10-03T02:31:22.895Z,0.00
2022-10-03T02:32:22.849Z,0.00
2022-10-03T02:33:22.838Z,0.00
2022-10-03T02:34:22.838Z,0.00
2022-10-03T02:35:22.838Z,0.00
2022-10-03T02:36:22.799Z,0.00
2022-10-03T02:37:22.799Z,0.00
2022-10-03T02:38:22.778Z,0.00
2022-10-03T02:39:22.769Z,0.00
2022-10-03T02:40:22.779Z,0.00
2022-10-03T02:41:22.743Z,0.00
2022-10-03T02:42:22.747Z,0.00
2022-10-03T02:43:22.716Z,0.00
2022-10-03T02:44:22.721Z,0.00
2022-10-03T02:45:22.778Z,0.00
2022-10-03T02:46:22.683Z,0.00
2022-10-03T02:47:22.665Z,0.00
2022-10-03T02:48:37.910Z,0.00
2022-10-03T02:49:23.635Z,0.00
2022-10-03T02:50:22.635Z,0.00
2022-10-03T02:51:22.605Z,0.00
2022-10-03T02:52:22.604Z,0.00
2022-10-03T02:53:22.585Z,0.00
2022-10-03T02:54:22.585Z,0.00
2022-10-03T02:55:22.566Z,0.00
2022-10-03T02:56:22.553Z,0.00
2022-10-03T02:57:22.552Z,0.00
2022-10-03T02:58:22.516Z,0.00
2022-10-03T02:59:22.524Z,0.00
2022-10-03T03:00:22.533Z,0.00
2022-10-03T03:01:22.582Z,0.00
2022-10-03T03:02:22.578Z,0.00
2022-10-03T03:03:22.492Z,0.00
2022-10-03T03:04:22.443Z,0.00
2022-10-03T03:05:22.442Z,0.00
2022-10-03T03:06:22.423Z,0.00
2022-10-03T03:07:22.402Z,0.00
2022-10-03T03:08:22.392Z,0.00
2022-10-03T03:09:22.381Z,0.00
2022-10-03T03:10:22.377Z,0.00
2022-10-03T03:11:22.350Z,0.00
2022-10-03T03:12:22.331Z,0.00
2022-10-03T03:13:22.332Z,0.00
2022-10-03T03:14:23.271Z,0.00
2022-10-03T03:15:22.401Z,0.00
2022-10-03T03:16:22.354Z,0.00
2022-10-03T03:17:22.270Z,0.00
2022-10-03T03:18:22.263Z,0.00
2022-10-03T03:19:22.251Z,0.00
2022-10-03T03:20:22.259Z,0.00
2022-10-03T03:21:22.247Z,0.00
2022-10-03T03:22:22.208Z,0.00
2022-10-03T03:23:22.189Z,0.00
2022-10-03T03:24:22.189Z,0.00
2022-10-03T03:25:22.178Z,0.00
2022-10-03T03:26:22.159Z,0.00
2022-10-03T03:27:22.164Z,0.00
2022-10-03T03:28:22.187Z,0.00
2022-10-03T03:29:22.131Z,0.00
2022-10-03T03:30:22.120Z,0.00
2022-10-03T03:31:22.178Z,0.00
2022-10-03T03:32:22.086Z,0.00
2022-10-03T03:33:22.078Z,0.00
2022-10-03T03:34:22.049Z,0.00
2022-10-03T03:35:22.069Z,0.00
2022-10-03T03:36:22.026Z,0.00
2022-10-03T03:37:22.026Z,0.00
2022-10-03T03:38:22.007Z,0.00
2022-10-03T03:39:22.006Z,0.00
2022-10-03T03:40:21.985Z,0.00
2022-10-03T03:41:21.978Z,0.00
2022-10-03T03:42:21.954Z,0.00
2022-10-03T03:43:21.946Z,0.00
2022-10-03T03:44:21.924Z,0.00
2022-10-03T03:45:22.048Z,0.00
2022-10-03T03:46:21.898Z,0.00
2022-10-03T03:47:21.892Z,0.00
2022-10-03T03:48:21.873Z,0.00
2022-10-03T03:49:21.855Z,0.00
2022-10-03T03:50:21.854Z,0.00
2022-10-03T03:51:21.850Z,0.00
2022-10-03T03:52:21.823Z,0.00
2022-10-03T03:53:21.823Z,0.00
2022-10-03T03:54:21.793Z,0.00
2022-10-03T03:55:21.809Z,0.00
2022-10-03T03:56:21.773Z,0.00
2022-10-03T03:57:21.762Z,0.00
2022-10-03T03:58:21.752Z,0.00
2022-10-03T03:59:21.731Z,0.00
2022-10-03T04:00:21.721Z,0.00
2022-10-03T04:01:21.788Z,0.00
2022-10-03T04:02:21.703Z,0.00
2022-10-03T04:03:21.684Z,0.00
2022-10-03T04:04:21.664Z,0.00
2022-10-03T04:05:21.671Z,0.00
2022-10-03T04:06:21.636Z,0.00
2022-10-03T04:07:22.094Z,0.00
2022-10-03T04:08:21.623Z,0.00
2022-10-03T04:09:21.609Z,0.00
2022-10-03T04:10:21.609Z,0.00
2022-10-03T04:11:21.579Z,0.00
2022-10-03T04:12:21.558Z,0.00
2022-10-03T04:13:21.568Z,0.00
2022-10-03T04:14:21.569Z,0.00
2022-10-03T04:15:21.528Z,0.00
2022-10-03T04:16:21.555Z,0.00
2022-10-03T04:17:21.510Z,0.00
2022-10-03T04:18:21.492Z,0.00
2022-10-03T04:19:21.478Z,0.00
2022-10-03T04:20:21.460Z,0.00
2022-10-03T04:21:21.487Z,0.00
2022-10-03T04:22:21.427Z,0.00
2022-10-03T04:23:21.418Z,0.00
2022-10-03T04:24:21.430Z,0.00
2022-10-03T04:25:21.419Z,0.00
2022-10-03T04:26:21.388Z,0.00
2022-10-03T04:27:21.427Z,0.00
2022-10-03T04:28:21.437Z,0.00
2022-10-03T04:29:21.355Z,0.00
2022-10-03T04:30:21.326Z,0.00
2022-10-03T04:31:21.407Z,0.00
2022-10-03T04:32:21.337Z,0.00
2022-10-03T04:33:21.299Z,0.00
2022-10-03T04:34:21.285Z,0.00
2022-10-03T04:35:21.282Z,0.00
2022-10-03T04:36:21.262Z,0.00
2022-10-03T04:37:21.256Z,0.00
2022-10-03T04:38:21.236Z,0.00
2022-10-03T04:39:21.219Z,0.00
2022-10-03T04:40:21.205Z,0.00
2022-10-03T04:41:21.234Z,0.00
2022-10-03T04:42:21.174Z,0.00
2022-10-03T04:43:21.193Z,0.00
2022-10-03T04:44:21.155Z,0.00
2022-10-03T04:45:21.152Z,0.00
2022-10-03T04:46:21.210Z,0.00
2022-10-03T04:47:21.123Z,0.00
2022-10-03T04:48:21.092Z,0.00
2022-10-03T04:49:21.092Z,0.00
2022-10-03T04:50:21.078Z,0.00
2022-10-03T04:51:21.074Z,0.00
2022-10-03T04:52:21.069Z,0.00
2022-10-03T04:53:21.045Z,0.00
2022-10-03T04:54:21.021Z,0.00
2022-10-03T04:55:21.009Z,0.00
2022-10-03T04:56:21.041Z,0.00
2022-10-03T04:57:20.991Z,0.00
2022-10-03T04:58:20.979Z,0.00
2022-10-03T04:59:20.961Z,0.00
2022-10-03T05:00:20.961Z,0.00
2022-10-03T05:01:21.051Z,0.00
2022-10-03T05:02:21.090Z,0.00
2022-10-03T05:03:20.899Z,0.00
2022-10-03T05:04:20.899Z,0.00
2022-10-03T05:05:20.883Z,0.00
2022-10-03T05:06:20.880Z,0.00
2022-10-03T05:07:20.858Z,0.00
2022-10-03T05:08:20.839Z,0.00
2022-10-03T05:09:20.828Z,0.00
2022-10-03T05:10:20.838Z,0.00
2022-10-03T05:11:20.846Z,0.00
2022-10-03T05:12:20.788Z,0.00
2022-10-03T05:13:20.787Z,0.00
2022-10-03T05:14:20.769Z,0.00
2022-10-03T05:15:20.758Z,0.00
2022-10-03T05:16:20.775Z,0.00
2022-10-03T05:17:20.746Z,0.00
2022-10-03T05:18:25.978Z,0.00
2022-10-03T05:19:21.738Z,0.00
2022-10-03T05:20:20.689Z,0.00
2022-10-03T05:21:20.845Z,0.00
2022-10-03T05:22:20.665Z,0.00
2022-10-03T05:23:20.667Z,0.00
2022-10-03T05:24:20.635Z,0.00
2022-10-03T05:25:20.634Z,0.00
2022-10-03T05:26:44.091Z,0.00
2022-10-03T05:27:21.596Z,0.00
2022-10-03T05:28:20.611Z,0.00
2022-10-03T05:29:20.582Z,0.00
2022-10-03T05:30:20.556Z,0.00
2022-10-03T05:31:20.678Z,0.00
2022-10-03T05:32:20.528Z,0.00
2022-10-03T05:33:20.523Z,0.00
2022-10-03T05:34:20.513Z,0.00
2022-10-03T05:35:20.483Z,0.00
2022-10-03T05:36:20.494Z,0.00
2022-10-03T05:37:20.463Z,0.00
2022-10-03T05:38:20.511Z,0.00
2022-10-03T05:39:20.453Z,0.00
2022-10-03T05:40:20.452Z,0.00
2022-10-03T05:41:25.159Z,0.00
2022-10-03T05:42:23.730Z,0.00
2022-10-03T05:43:20.417Z,0.00
2022-10-03T05:44:20.381Z,0.00
2022-10-03T05:45:20.368Z,0.00
2022-10-03T05:46:20.420Z,0.00
2022-10-03T05:47:20.375Z,0.00
2022-10-03T05:48:20.321Z,0.00
2022-10-03T05:49:20.331Z,0.00
2022-10-03T05:50:20.300Z,0.00
2022-10-03T05:51:20.289Z,0.00
2022-10-03T05:52:20.271Z,0.00
2022-10-03T05:53:20.259Z,0.00
2022-10-03T05:54:20.269Z,0.00
2022-10-03T05:55:20.284Z,0.00
2022-10-03T05:56:20.221Z,0.00
2022-10-03T05:57:20.222Z,0.00
2022-10-03T05:58:20.205Z,0.00
2022-10-03T05:59:20.188Z,0.00
2022-10-03T06:00:20.158Z,0.00
2022-10-03T06:01:20.187Z,0.00
2022-10-03T06:02:20.272Z,0.00
2022-10-03T06:03:20.210Z,0.00
2022-10-03T06:04:20.128Z,0.00
2022-10-03T06:05:20.114Z,0.00
2022-10-03T06:06:20.108Z,5.62
2022-10-03T06:07:20.076Z,5.62
2022-10-03T06:08:20.102Z,5.62
2022-10-03T06:09:20.057Z,5.62
2022-10-03T06:10:20.035Z,5.62
2022-10-03T06:11:20.037Z,5.62
2022-10-03T06:12:20.054Z,5.62
2022-10-03T06:13:20.016Z,5.62
2022-10-03T06:14:20.006Z,5.62
2022-10-03T06:15:19.995Z,5.62
2022-10-03T06:16:20.007Z,5.62
2022-10-03T06:17:19.975Z,5.62
2022-10-03T06:18:19.942Z,5.62
2022-10-03T06:19:19.932Z,5.62
2022-10-03T06:20:19.927Z,5.62
2022-10-03T06:21:19.901Z,5.62
2022-10-03T06:22:19.885Z,5.62
2022-10-03T06:23:19.884Z,5.62
2022-10-03T06:24:19.881Z,5.62
2022-10-03T06:25:19.844Z,5.62
2022-10-03T06:26:19.833Z,5.62
2022-10-03T06:27:19.812Z,5.62
2022-10-03T06:28:19.872Z,5.62
2022-10-03T06:29:19.812Z,5.62
2022-10-03T06:30:19.804Z,5.62
2022-10-03T06:31:19.820Z,5.62
2022-10-03T06:32:19.753Z,5.62
2022-10-03T06:33:19.744Z,5.62
2022-10-03T06:34:19.795Z,5.62
2022-10-03T06:35:19.733Z,5.62
2022-10-03T06:36:19.720Z,5.62
2022-10-03T06:37:19.691Z,5.62
2022-10-03T06:38:19.708Z,5.62
2022-10-03T06:39:19.691Z,5.62
2022-10-03T06:40:19.654Z,5.62
2022-10-03T06:41:19.660Z,5.62
2022-10-03T06:42:19.630Z,5.62
2022-10-03T06:43:19.691Z,11.25
2022-10-03T06:44:19.609Z,11.25
2022-10-03T06:45:19.602Z,11.25
2022-10-03T06:46:19.639Z,11.25
2022-10-03T06:47:19.571Z,11.25
2022-10-03T06:48:19.549Z,11.25
2022-10-03T06:49:19.571Z,11.25
2022-10-03T06:50:19.548Z,11.25
2022-10-03T06:51:19.516Z,11.25
2022-10-03T06:52:19.523Z,11.25
2022-10-03T06:53:19.488Z,16.88
2022-10-03T06:54:19.477Z,16.88
2022-10-03T06:55:19.467Z,16.88
2022-10-03T06:56:19.483Z,16.88
2022-10-03T06:57:19.448Z,16.88
2022-10-03T06:58:19.433Z,22.50
2022-10-03T06:59:19.417Z,22.50
2022-10-03T07:00:19.443Z,22.50
2022-10-03T07:01:20.417Z,22.50
2022-10-03T07:02:19.418Z,22.50
2022-10-03T07:03:19.366Z,22.50
2022-10-03T07:04:19.367Z,22.50
2022-10-03T07:05:19.332Z,16.88
2022-10-03T07:06:19.343Z,16.88
2022-10-03T07:07:19.306Z,16.88
2022-10-03T07:08:19.317Z,16.88
2022-10-03T07:09:19.286Z,16.88
2022-10-03T07:10:19.266Z,16.88
2022-10-03T07:11:19.265Z,16.88
2022-10-03T07:12:19.254Z,16.88
2022-10-03T07:13:19.223Z,16.88
2022-10-03T07:14:19.274Z,16.88
2022-10-03T07:15:19.205Z,16.88
2022-10-03T07:16:26.814Z,16.88
2022-10-03T07:17:20.291Z,16.88
2022-10-03T07:18:19.175Z,16.88
2022-10-03T07:19:19.216Z,22.50
2022-10-03T07:20:19.142Z,22.50
2022-10-03T07:21:19.130Z,22.50
2022-10-03T07:22:19.115Z,22.50
2022-10-03T07:23:19.103Z,22.50
2022-10-03T07:24:19.082Z,22.50
2022-10-03T07:25:19.076Z,22.50
2022-10-03T07:26:19.073Z,22.50
2022-10-03T07:27:19.053Z,22.50
2022-10-03T07:28:19.097Z,22.50
2022-10-03T07:29:19.054Z,16.88
2022-10-03T07:30:19.012Z,16.88
2022-10-03T07:31:19.092Z,16.88
2022-10-03T07:32:18.980Z,16.88
2022-10-03T07:33:18.969Z,22.50
2022-10-03T07:34:18.958Z,22.50
2022-10-03T07:35:18.959Z,28.12
2022-10-03T07:36:18.943Z,28.12
2022-10-03T07:37:18.986Z,28.12
2022-10-03T07:38:18.910Z,33.75
2022-10-03T07:39:18.893Z,45.00
2022-10-03T07:40:18.887Z,45.00
2022-10-03T07:41:18.869Z,45.00
2022-10-03T07:42:18.868Z,33.75
2022-10-03T07:43:18.838Z,28.12
2022-10-03T07:44:18.827Z,28.12
2022-10-03T07:45:18.821Z,22.50
2022-10-03T07:46:18.863Z,22.50
2022-10-03T07:47:18.827Z,22.50
2022-10-03T07:48:18.787Z,16.88
2022-10-03T07:49:18.881Z,16.88
2022-10-03T07:50:18.749Z,16.88
2022-10-03T07:51:18.775Z,16.88
2022-10-03T07:52:18.747Z,16.88
2022-10-03T07:53:18.716Z,22.50
2022-10-03T07:54:18.726Z,33.75
2022-10-03T07:55:18.708Z,33.75
2022-10-03T07:56:18.707Z,28.12
2022-10-03T07:57:18.677Z,28.12
2022-10-03T07:58:18.673Z,39.38
2022-10-03T07:59:18.632Z,39.38
2022-10-03T08:00:18.637Z,39.38
2022-10-03T08:01:18.604Z,39.38
2022-10-03T08:02:18.612Z,39.38
2022-10-03T08:03:18.615Z,45.00
2022-10-03T08:04:18.564Z,45.00
2022-10-03T08:05:18.623Z,50.62
2022-10-03T08:06:18.556Z,50.62
2022-10-03T08:07:18.534Z,45.00
2022-10-03T08:08:18.525Z,45.00
2022-10-03T08:09:18.503Z,50.62
2022-10-03T08:10:18.523Z,50.62
2022-10-03T08:11:18.495Z,50.62
2022-10-03T08:12:18.463Z,50.62
2022-10-03T08:13:18.453Z,56.25
2022-10-03T08:14:18.432Z,50.62
2022-10-03T08:15:18.432Z,56.25
2022-10-03T08:16:18.479Z,56.25
2022-10-03T08:17:18.423Z,56.25
2022-10-03T08:18:18.382Z,61.88
2022-10-03T08:19:18.370Z,61.88
2022-10-03T08:20:18.363Z,61.88
2022-10-03T08:21:18.351Z,61.88
2022-10-03T08:22:18.362Z,61.88
2022-10-03T08:23:18.369Z,61.88
2022-10-03T08:24:18.302Z,67.50
2022-10-03T08:25:18.329Z,67.50
2022-10-03T08:26:18.281Z,67.50
2022-10-03T08:27:18.281Z,67.50
2022-10-03T08:28:18.309Z,73.12
2022-10-03T08:29:18.260Z,73.12
2022-10-03T08:30:18.231Z,73.12
2022-10-03T08:31:18.257Z,73.12
2022-10-03T08:32:18.201Z,73.12
2022-10-03T08:33:18.198Z,78.75
2022-10-03T08:34:18.170Z,78.75
2022-10-03T08:35:18.213Z,78.75
2022-10-03T08:36:18.172Z,78.75
2022-10-03T08:37:18.138Z,78.75
2022-10-03T08:38:18.158Z,78.75
2022-10-03T08:39:18.118Z,84.38
2022-10-03T08:40:18.107Z,84.38
2022-10-03T08:41:18.130Z,84.38
2022-10-03T08:42:18.078Z,90.00
2022-10-03T08:43:18.072Z,90.00
2022-10-03T08:44:18.056Z,90.00
2022-10-03T08:45:18.048Z,90.00
2022-10-03T08:46:18.063Z,95.62
2022-10-03T08:47:18.010Z,101.25
2022-10-03T08:48:18.011Z,112.50
2022-10-03T08:49:17.987Z,118.12
2022-10-03T08:50:17.987Z,118.12
2022-10-03T08:51:17.966Z,90.00
2022-10-03T08:52:17.987Z,84.38
2022-10-03T08:53:17.936Z,50.62
2022-10-03T08:54:17.950Z,50.62
2022-10-03T08:55:17.916Z,45.00
2022-10-03T08:56:17.901Z,45.00
2022-10-03T08:57:17.905Z,56.25
2022-10-03T08:58:17.916Z,123.75
2022-10-03T08:59:17.867Z,73.12
2022-10-03T09:00:17.857Z,61.88
2022-10-03T09:01:17.861Z,56.25
2022-10-03T09:02:17.969Z,56.25
2022-10-03T09:03:33.558Z,56.25
2022-10-03T09:04:18.840Z,56.25
2022-10-03T09:05:17.793Z,118.12
2022-10-03T09:06:17.784Z,95.62
2022-10-03T09:07:18.926Z,67.50
2022-10-03T09:08:17.754Z,39.38
2022-10-03T09:09:17.745Z,56.25
2022-10-03T09:10:17.769Z,39.38
2022-10-03T09:11:17.718Z,90.00
2022-10-03T09:12:17.714Z,123.75
2022-10-03T09:13:17.694Z,112.50
2022-10-03T09:14:17.711Z,106.88
2022-10-03T09:15:17.677Z,84.38
2022-10-03T09:16:18.697Z,39.38
2022-10-03T09:17:17.681Z,33.75
2022-10-03T09:18:17.643Z,45.00
2022-10-03T09:19:17.632Z,112.50
2022-10-03T09:20:17.704Z,129.38
2022-10-03T09:21:17.594Z,61.88
2022-10-03T09:22:17.582Z,129.38
2022-10-03T09:23:17.563Z,118.12
2022-10-03T09:24:17.578Z,95.62
2022-10-03T09:25:17.534Z,129.38
2022-10-03T09:26:17.544Z,95.62
2022-10-03T09:27:17.501Z,135.00
2022-10-03T09:28:19.205Z,56.25
2022-10-03T09:29:17.484Z,67.50
2022-10-03T09:30:17.548Z,84.38
2022-10-03T09:31:17.514Z,101.25
2022-10-03T09:32:17.452Z,84.38
2022-10-03T09:33:17.451Z,50.62
2022-10-03T09:34:17.441Z,39.38
2022-10-03T09:35:17.412Z,39.38
2022-10-03T09:36:17.385Z,33.75
2022-10-03T09:37:17.381Z,33.75
2022-10-03T09:38:17.390Z,33.75
2022-10-03T09:39:17.350Z,39.38
2022-10-03T09:40:17.470Z,39.38
2022-10-03T09:41:17.323Z,39.38
2022-10-03T09:42:17.301Z,45.00
2022-10-03T09:43:17.300Z,50.62
2022-10-03T09:44:17.300Z,45.00
2022-10-03T09:45:17.267Z,61.88
2022-10-03T09:46:17.291Z,45.00
2022-10-03T09:47:17.251Z,39.38
2022-10-03T09:48:17.222Z,73.12
2022-10-03T09:49:17.217Z,56.25
2022-10-03T09:50:17.260Z,50.62
2022-10-03T09:51:17.202Z,101.25
2022-10-03T09:52:17.171Z,84.38
2022-10-03T09:53:17.168Z,90.00
2022-10-03T09:54:17.139Z,118.12
2022-10-03T09:55:17.138Z,123.75
2022-10-03T09:56:17.141Z,118.12
2022-10-03T09:57:22.050Z,112.50
2022-10-03T09:58:18.109Z,101.25
2022-10-03T09:59:17.089Z,90.00
2022-10-03T10:00:17.178Z,67.50
2022-10-03T10:01:17.106Z,123.75
2022-10-03T10:02:17.050Z,123.75
2022-10-03T10:03:17.027Z,95.62
2022-10-03T10:04:22.087Z,101.25
2022-10-03T10:05:17.997Z,112.50
2022-10-03T10:06:18.243Z,112.50
2022-10-03T10:07:17.086Z,146.25
2022-10-03T10:08:17.037Z,146.25
2022-10-03T10:09:17.047Z,140.62
2022-10-03T10:10:17.016Z,95.62
2022-10-03T10:11:16.937Z,101.25
2022-10-03T10:12:16.932Z,95.62
2022-10-03T10:13:16.907Z,78.75
2022-10-03T10:14:16.893Z,39.38
2022-10-03T10:15:16.877Z,33.75
2022-10-03T10:16:16.928Z,33.75
2022-10-03T10:17:16.866Z,39.38
2022-10-03T10:18:16.872Z,39.38
2022-10-03T10:19:16.827Z,39.38
2022-10-03T10:20:16.807Z,39.38
2022-10-03T10:21:16.805Z,50.62
2022-10-03T10:22:16.779Z,33.75
2022-10-03T10:23:16.781Z,33.75
2022-10-03T10:24:16.774Z,33.75
2022-10-03T10:25:16.757Z,33.75
2022-10-03T10:26:16.759Z,33.75
2022-10-03T10:27:16.725Z,33.75
2022-10-03T10:28:16.770Z,33.75
2022-10-03T10:29:16.714Z,33.75
2022-10-03T10:30:16.675Z,33.75
2022-10-03T10:31:16.737Z,33.75
2022-10-03T10:32:20.603Z,33.75
2022-10-03T10:33:17.685Z,33.75
2022-10-03T10:34:16.625Z,33.75
2022-10-03T10:35:16.652Z,33.75
2022-10-03T10:36:16.604Z,33.75
2022-10-03T10:37:16.603Z,33.75
2022-10-03T10:38:16.613Z,33.75
2022-10-03T10:39:16.573Z,33.75
2022-10-03T10:40:16.613Z,33.75
2022-10-03T10:41:16.566Z,33.75
2022-10-03T10:42:16.535Z,33.75
2022-10-03T10:43:16.544Z,33.75
2022-10-03T10:44:16.516Z,33.75
2022-10-03T10:45:16.486Z,39.38
2022-10-03T10:46:16.515Z,39.38
2022-10-03T10:47:16.474Z,39.38
2022-10-03T10:48:16.462Z,39.38
2022-10-03T10:49:16.454Z,39.38
2022-10-03T10:50:16.443Z,45.00
2022-10-03T10:51:16.402Z,67.50
2022-10-03T10:52:16.405Z,50.62
2022-10-03T10:53:16.403Z,39.38
2022-10-03T10:54:16.372Z,39.38
2022-10-03T10:55:16.375Z,45.00
2022-10-03T10:56:16.352Z,45.00
2022-10-03T10:57:16.332Z,50.62
2022-10-03T10:58:16.330Z,56.25
2022-10-03T10:59:16.321Z,50.62
2022-10-03T11:00:16.302Z,78.75
2022-10-03T11:01:16.333Z,45.00
2022-10-03T11:02:16.292Z,45.00
2022-10-03T11:03:16.252Z,45.00
2022-10-03T11:04:16.275Z,45.00
2022-10-03T11:05:16.273Z,45.00
2022-10-03T11:06:16.242Z,45.00
2022-10-03T11:07:16.245Z,45.00
2022-10-03T11:08:16.226Z,45.00
2022-10-03T11:09:16.180Z,50.62
2022-10-03T11:10:16.174Z,101.25
2022-10-03T11:11:16.161Z,84.38
2022-10-03T11:12:16.139Z,50.62
2022-10-03T11:13:16.122Z,56.25
2022-10-03T11:14:16.112Z,61.88
2022-10-03T11:15:16.098Z,95.62
2022-10-03T11:16:16.167Z,106.88
2022-10-03T11:17:16.100Z,95.62
2022-10-03T11:18:16.087Z,101.25
2022-10-03T11:19:16.053Z,78.75
2022-10-03T11:20:16.051Z,101.25
2022-10-03T11:21:16.023Z,118.12
2022-10-03T11:22:16.019Z,106.88
2022-10-03T11:23:16.020Z,112.50
2022-10-03T11:24:16.001Z,56.25
2022-10-03T11:25:15.970Z,56.25
2022-10-03T11:26:16.001Z,56.25
2022-10-03T11:27:15.951Z,101.25
2022-10-03T11:28:18.793Z,123.75
2022-10-03T11:29:15.920Z,95.62
2022-10-03T11:30:15.908Z,56.25
2022-10-03T11:31:15.965Z,123.75
2022-10-03T11:32:15.880Z,78.75
2022-10-03T11:33:15.911Z,56.25
2022-10-03T11:34:15.891Z,56.25
2022-10-03T11:35:15.848Z,67.50
2022-10-03T11:36:15.842Z,101.25
2022-10-03T11:37:15.818Z,50.62
2022-10-03T11:38:15.819Z,56.25
2022-10-03T11:39:15.791Z,56.25
2022-10-03T11:40:15.812Z,56.25
2022-10-03T11:41:15.789Z,50.62
2022-10-03T11:42:15.779Z,45.00
2022-10-03T11:43:15.772Z,45.00
2022-10-03T11:44:15.739Z,45.00
2022-10-03T11:45:15.787Z,45.00
2022-10-03T11:46:15.748Z,50.62
2022-10-03T11:47:16.488Z,101.25
2022-10-03T11:48:15.716Z,61.88
2022-10-03T11:49:15.688Z,50.62
2022-10-03T11:50:15.658Z,50.62
2022-10-03T11:51:15.659Z,90.00
2022-10-03T11:52:15.636Z,101.25
2022-10-03T11:53:15.607Z,90.00
2022-10-03T11:54:30.592Z,95.62
2022-10-03T11:55:16.625Z,84.38
2022-10-03T11:56:15.627Z,95.62
2022-10-03T11:57:15.574Z,95.62
2022-10-03T11:58:15.558Z,84.38
2022-10-03T11:59:15.537Z,78.75
2022-10-03T12:00:15.517Z,67.50
2022-10-03T12:01:15.508Z,39.38
2022-10-03T12:02:15.588Z,39.38
2022-10-03T12:03:15.515Z,33.75
2022-10-03T12:04:15.478Z,33.75
2022-10-03T12:05:15.457Z,28.12
2022-10-03T12:06:15.446Z,28.12
2022-10-03T12:07:17.490Z,28.12
2022-10-03T12:08:15.436Z,28.12
2022-10-03T12:09:15.454Z,33.75
2022-10-03T12:10:15.406Z,33.75
2022-10-03T12:11:15.395Z,33.75
2022-10-03T12:12:15.378Z,39.38
2022-10-03T12:13:15.385Z,39.38
2022-10-03T12:14:15.553Z,39.38
2022-10-03T12:15:15.337Z,39.38
2022-10-03T12:16:15.364Z,39.38
2022-10-03T12:17:15.305Z,39.38
2022-10-03T12:18:15.296Z,39.38
2022-10-03T12:19:15.275Z,39.38
2022-10-03T12:20:15.265Z,39.38
2022-10-03T12:21:19.635Z,39.38
2022-10-03T12:22:16.237Z,45.00
2022-10-03T12:23:15.223Z,45.00
2022-10-03T12:24:15.214Z,39.38
2022-10-03T12:25:15.215Z,39.38
2022-10-03T12:26:15.185Z,39.38
2022-10-03T12:27:15.176Z,39.38
2022-10-03T12:28:15.190Z,39.38
2022-10-03T12:29:15.166Z,33.75
2022-10-03T12:30:15.133Z,33.75
2022-10-03T12:31:18.923Z,28.12
2022-10-03T12:32:15.152Z,28.12
2022-10-03T12:33:15.104Z,28.12
2022-10-03T12:34:15.092Z,28.12
2022-10-03T12:35:15.075Z,22.50
2022-10-03T12:36:15.065Z,22.50
2022-10-03T12:37:15.065Z,22.50
2022-10-03T12:38:15.036Z,22.50
2022-10-03T12:39:15.014Z,22.50
2022-10-03T12:40:15.003Z,22.50
2022-10-03T12:41:15.013Z,22.50
2022-10-03T12:42:14.981Z,22.50
2022-10-03T12:43:15.013Z,22.50
2022-10-03T12:44:14.956Z,22.50
2022-10-03T12:45:14.967Z,22.50
2022-10-03T12:46:14.970Z,22.50
2022-10-03T12:47:14.930Z,22.50
2022-10-03T12:48:14.904Z,22.50
2022-10-03T12:49:14.887Z,22.50
2022-10-03T12:50:14.876Z,22.50
2022-10-03T12:51:14.872Z,28.12
2022-10-03T12:52:14.847Z,28.12
2022-10-03T12:53:14.842Z,28.12
2022-10-03T12:54:14.832Z,33.75
2022-10-03T12:55:14.813Z,33.75
2022-10-03T12:56:14.802Z,33.75
2022-10-03T12:57:14.783Z,33.75
2022-10-03T12:58:14.772Z,33.75
2022-10-03T12:59:14.764Z,33.75
2022-10-03T13:00:14.772Z,39.38
2022-10-03T13:01:14.840Z,39.38
2022-10-03T13:02:14.748Z,39.38
2022-10-03T13:03:14.713Z,39.38
2022-10-03T13:04:14.692Z,45.00